• Join FlightAware (Why Join?)
  • Login
  • US Flag 
03:51PM EDT


 

Airport Tracker/Info


-or-


 

Live Flight TrackerFlight Track Log ✈ ASH3780 ✈ 06-May-2013 ✈ KIAD - KDTW

Flight Track Log - Related Links

Times and Time Zones

All times are in EDT time to prevent confusion due to time zone crossing. See the ASH3780 flight status page for this flight to view local times or setup timezone preferences in your user account.

Time Position Orientation Groundspeed Altitude Reporting Facility
EDT Latitude Longitude Course Direction KTS MPH feet Rate Location/Type
08:27AM 39.0997 -77.5467 308° West 279 321 6,400  Level Washington Center
08:28AM 39.1761 -77.5969 333° Northwest 290 334 9,400 2,820 Climbing Washington Center
08:29AM 39.2522 -77.6500 332° Northwest 303 349 12,100 2,760 Climbing Washington Center
08:30AM 39.3306 -77.7086 330° Northwest 309 356 14,900 1,860 Climbing Washington Center
08:31AM 39.4128 -77.7700 330° Northwest 327 376 15,900 900 Climbing Washington Center
08:32AM 39.0048 -77.5546 308° West  Level Estimated
08:33AM 39.5035 -77.9362 293° West  Level Estimated
08:34AM 39.5992 -78.0586 293° West 412 474 18,300  Level Cleveland Center
08:35AM 39.6442 -78.2053 292° West 422 486 20,300 1,800 Climbing Cleveland Center
08:37AM 39.7292 -78.4939 291° West 427 491 23,900 1,620 Climbing Cleveland Center
08:38AM 39.7711 -78.6383 291° West 427 491 25,200 1,200 Climbing Cleveland Center
08:39AM 39.8067 -78.7725 289° West 432 497 26,300 900 Climbing Cleveland Center
08:40AM 39.8403 -78.8927 290° West  Level FlightAware Approximate
08:41AM 39.9011 -79.0975 290° West 459 528 28,000  Level Cleveland Center
08:42AM 39.9469 -79.2589 290° West 470 541 28,000  Level Cleveland Center
08:43AM 40.0069 -79.4150 297° West 476 548 28,000  Level Cleveland Center
08:44AM 40.0792 -79.5603 303° West 476 548 28,000  Level Cleveland Center
08:45AM 40.1533 -79.7058 304° West 486 559 28,000  Level Cleveland Center
08:47AM 40.2546 -79.9187 302° West  Level FlightAware Approximate
08:48AM 40.3644 -80.1281 302° West 480 552 28,000  Level Cleveland Center
08:49AM 40.4419 -80.2803 304° West 480 552 28,000  Level Cleveland Center
08:50AM 40.5172 -80.4219 305° West 480 552 28,000  Level Cleveland Center
08:52AM 40.6653 -80.7200 303° West 485 558 28,000  Level Cleveland Center
08:53AM 40.7381 -80.8708 303° West 485 558 28,000  Level Cleveland Center
08:55AM 40.8911 -81.1900 302° West 495 570 28,000  Level Cleveland Center
08:56AM 40.9631 -81.3392 303° West 495 570 28,000  Level Cleveland Center
08:57AM 41.0392 -81.4833 305° West 495 570 28,000 -1,140 Level Cleveland Center
08:59AM 41.1658 -81.7200 302° West  Level FlightAware Approximate
09:00AM 41.2583 -81.8897 302° West 463 533 23,500  Level Cleveland Center
09:02AM 41.4028 -82.1667 305° West 446 513 19,600 -1,620 Descending Cleveland Center
09:04AM 41.5255 -82.4049 306° West  Level FlightAware Approximate
09:05AM 41.6014 -82.5408 306° West 415 478 15,500  Level Cleveland Center
09:05AM 41.6519 -82.6342 306° West 394 453 13,600 -2,220 Descending Cleveland Center
09:06AM 41.6719 -82.6819 299° West 390 449 12,800 -1,260 Descending Cleveland Center
09:07AM 41.7303 -82.7811 308° West 339 390 12,000 -1,020 Descending Cleveland Center
09:09AM 41.8381 -82.9186 316° Northwest 316 364 10,000 -1,260 Descending Cleveland Center
09:10AM 41.8864 -83.0097 305° West 304 350 8,400 -1,860 Descending Cleveland Center
09:10AM 41.9022 -83.0494 298° West 299 344 7,700 -1,620 Descending Cleveland Center
09:11AM 41.9217 -83.1089 294° West 299 344 6,800 -1,440 Descending Cleveland Center
09:11AM 41.9375 -83.1458 300° West 285 328 6,200 -840 Descending Cleveland Center
09:12AM 41.9592 -83.2053 296° West 292 336 6,000 -240 Descending Cleveland Center
09:12AM 41.9750 -83.2450 298° West 287 330 6,000 -720 Level Cleveland Center
09:13AM 41.9903 -83.2986 291° West 277 319 5,300 -1,260 Descending Cleveland Center
09:14AM 42.0256 -83.3925 297° West 277 319 3,900 -1,500 Descending Cleveland Center
09:14AM 42.0564 -83.4161 330° Northwest 248 285 3,300 -900 Descending Cleveland Center
09:15AM 42.0875 -83.4175 358° North 244 281 3,000 -600 Descending Cleveland Center
09:15AM 42.1086 -83.4128 North 193 222 2,800 -1,140 Descending Cleveland Center
09:16AM 42.1572 -83.3814 26° Northeast 150 173 1,500 -1,200 Descending Cleveland Center
09:18AM 42.2000 -83.3500 North  Level FlightAware Approximate
09:25AM 42.2124 -83.3534 North  Level Estimated
09:26AM 42.2124 -83.3534 North  Level Estimated